Hovedside
METAR-TAF:

METAR-TAF

Lufthavner :

Sogndal lufthamn. Haukåsen

Sogndal, Norge

breddegrad: 61-09N, lengdegrad: 007-08E, høyde over havet: 49 m

Gjeldene værobservasjon

Denne rapporten ble laget for 53 minutter siden, klokken 14:50 UTC
Vind 4 kt fra Øst-nordøst
Temperatur 11°C
Luftfuktighet 30%
Trykk 1037 hPa
Sikt 10 km eller mer
ingen skyer under 1500 m og ingen bygeskyer

METAR: ENSG 181450Z 07004KT CAVOK 11/M06 Q1037 RMK WIND 3806FT VRB03KT

Tid: 17:43 (15:43 UTC)


TAF: fraværende

Værobservasjoner og værvarsel for over 4000 flyplasser (METAR- og TAF-rapporter).

Tilgjengelige stasjoner er representert av de røde og gule prikkene på kartet.

Hold musepekeren over prikken for å se navnet på stasjonen.

Klikk så for å se værobservasjoner og -varsler.

For å forandre kartet kan du klikke på den grønne knappen med svart kryss for å zoome inn, på den grønne knappen med strek for å zoome ut, eller på de grønne pilene for å se tilstøtende kart.


METAR-TAF: